createdAt,value
2018-12-06T00:00:06.717Z,100.00
2018-12-06T00:02:35.670Z,100.00
2018-12-06T00:05:05.165Z,100.00
2018-12-06T00:07:34.534Z,100.00
2018-12-06T00:10:03.504Z,100.00
2018-12-06T00:12:32.405Z,100.00
2018-12-06T00:15:40.661Z,100.00
2018-12-06T00:18:09.615Z,100.00
2018-12-06T00:20:38.559Z,100.00
2018-12-06T00:23:07.490Z,100.00
2018-12-06T00:25:36.444Z,100.00
2018-12-06T00:28:05.461Z,100.00
2018-12-06T00:30:36.766Z,100.00
2018-12-06T00:33:05.908Z,100.00
2018-12-06T00:35:34.852Z,100.00
2018-12-06T00:38:04.028Z,100.00
2018-12-06T00:40:32.945Z,100.00
2018-12-06T00:43:04.784Z,100.00
2018-12-06T00:45:33.805Z,100.00
2018-12-06T00:48:02.781Z,100.00
2018-12-06T00:50:31.673Z,100.00
2018-12-06T00:53:00.481Z,100.00
2018-12-06T00:55:29.394Z,100.00
2018-12-06T00:57:58.319Z,100.00
2018-12-06T01:00:27.365Z,100.00
2018-12-06T01:02:56.413Z,100.00
2018-12-06T01:05:25.349Z,100.00
2018-12-06T01:07:54.261Z,100.00
2018-12-06T01:10:23.079Z,100.00
2018-12-06T01:12:52.068Z,100.00
2018-12-06T01:15:20.983Z,100.00
2018-12-06T01:17:52.803Z,100.00
2018-12-06T01:20:21.609Z,100.00
2018-12-06T01:22:50.609Z,100.00
2018-12-06T01:25:19.621Z,100.00
2018-12-06T01:27:48.439Z,100.00
2018-12-06T01:30:17.338Z,100.00
2018-12-06T01:32:46.213Z,100.00
2018-12-06T01:35:15.006Z,100.00
2018-12-06T01:37:43.881Z,100.00
2018-12-06T01:40:13.033Z,100.00
2018-12-06T01:42:42.025Z,100.00
2018-12-06T01:45:10.928Z,100.00
2018-12-06T01:47:39.932Z,100.00
2018-12-06T01:50:09.722Z,100.00
2018-12-06T01:52:38.616Z,99.57
2018-12-06T01:55:07.608Z,96.95
2018-12-06T01:57:36.494Z,95.29
2018-12-06T02:00:06.297Z,95.26
2018-12-06T02:02:35.193Z,94.99
2018-12-06T02:05:04.485Z,95.86
2018-12-06T02:07:33.476Z,94.85
2018-12-06T02:10:02.628Z,95.23
2018-12-06T02:12:31.613Z,98.45
2018-12-06T02:15:00.428Z,96.69
2018-12-06T02:17:29.289Z,97.53
2018-12-06T02:19:58.084Z,97.88
2018-12-06T02:22:26.980Z,95.46
2018-12-06T02:24:55.865Z,95.83
2018-12-06T02:27:24.777Z,99.02
2018-12-06T02:29:53.689Z,97.92
2018-12-06T02:32:23.702Z,93.84
2018-12-06T02:34:52.506Z,96.05
2018-12-06T02:37:21.535Z,95.03
2018-12-06T02:39:50.473Z,96.05
2018-12-06T02:42:19.414Z,97.89
2018-12-06T02:44:48.206Z,96.89
2018-12-06T02:47:17.121Z,96.45
2018-12-06T02:49:45.988Z,95.69
2018-12-06T02:52:14.914Z,94.23
2018-12-06T02:54:43.830Z,95.44
2018-12-06T02:57:12.718Z,95.36
2018-12-06T02:59:41.622Z,94.93
2018-12-06T03:02:10.513Z,94.97
2018-12-06T03:04:39.316Z,93.89
2018-12-06T03:07:08.201Z,95.28
2018-12-06T03:09:37.116Z,93.61
2018-12-06T03:12:05.962Z,94.86
2018-12-06T03:14:34.799Z,93.62
2018-12-06T03:17:03.817Z,94.07
2018-12-06T03:19:32.913Z,93.51
2018-12-06T03:22:01.816Z,94.15
2018-12-06T03:24:30.802Z,95.76
2018-12-06T03:26:59.907Z,96.88
2018-12-06T03:29:29.213Z,96.75
2018-12-06T03:31:58.205Z,96.15
2018-12-06T03:34:27.225Z,96.97
2018-12-06T03:36:56.240Z,96.47
2018-12-06T03:39:25.054Z,97.04
2018-12-06T03:41:53.998Z,94.82
2018-12-06T03:44:23.866Z,94.21
2018-12-06T03:46:52.806Z,94.76
2018-12-06T03:49:21.786Z,95.16
2018-12-06T03:51:50.710Z,97.89
2018-12-06T03:54:19.626Z,95.95
2018-12-06T03:56:48.817Z,95.20
2018-12-06T03:59:17.745Z,93.21
2018-12-06T04:01:46.536Z,92.20
2018-12-06T04:04:15.422Z,92.27
2018-12-06T04:06:44.203Z,92.14
2018-12-06T04:09:13.269Z,91.04
2018-12-06T04:11:42.366Z,94.91
2018-12-06T04:14:11.293Z,93.81
2018-12-06T04:16:40.221Z,93.63
2018-12-06T04:19:09.148Z,95.65
2018-12-06T04:21:38.069Z,96.02
2018-12-06T04:24:06.986Z,94.87
2018-12-06T04:26:35.818Z,93.52
2018-12-06T04:29:05.235Z,93.94
2018-12-06T04:31:36.340Z,93.71
2018-12-06T04:34:05.375Z,93.30
2018-12-06T04:36:34.279Z,94.96
2018-12-06T04:39:05.454Z,94.49
2018-12-06T04:41:34.525Z,95.82
2018-12-06T04:44:03.486Z,94.89
2018-12-06T04:46:32.415Z,94.74
2018-12-06T04:49:01.450Z,97.13
2018-12-06T04:51:30.488Z,95.31
2018-12-06T04:53:59.402Z,93.97
2018-12-06T04:56:28.343Z,94.75
2018-12-06T04:58:57.376Z,96.00
2018-12-06T05:01:26.386Z,97.76
2018-12-06T05:03:55.721Z,95.21
2018-12-06T05:06:24.747Z,95.29
2018-12-06T05:08:53.566Z,94.23
2018-12-06T05:11:22.597Z,93.95
2018-12-06T05:13:51.509Z,97.32
2018-12-06T05:16:20.349Z,93.18
2018-12-06T05:18:49.273Z,92.65
2018-12-06T05:21:18.392Z,93.63
2018-12-06T05:23:47.177Z,94.21
2018-12-06T05:26:15.990Z,94.28
2018-12-06T05:28:44.954Z,95.85
2018-12-06T05:31:13.877Z,92.49
2018-12-06T05:33:42.814Z,92.51
2018-12-06T05:36:11.693Z,91.42
2018-12-06T05:38:41.743Z,91.48
2018-12-06T05:41:10.970Z,91.76
2018-12-06T05:43:39.892Z,91.29
2018-12-06T05:46:08.847Z,91.29
2018-12-06T05:48:37.944Z,89.46
2018-12-06T05:51:06.897Z,90.56
2018-12-06T05:53:35.730Z,89.92
2018-12-06T05:56:04.598Z,88.64
2018-12-06T05:58:33.717Z,89.17
2018-12-06T06:01:02.645Z,88.79
2018-12-06T06:03:31.534Z,89.26
2018-12-06T06:06:00.436Z,88.48
2018-12-06T06:08:29.416Z,87.90
2018-12-06T06:10:58.440Z,87.57
2018-12-06T06:13:27.331Z,90.11
2018-12-06T06:15:56.255Z,90.33
2018-12-06T06:18:25.165Z,88.08
2018-12-06T06:20:54.086Z,88.44
2018-12-06T06:23:23.100Z,86.43
2018-12-06T06:25:52.553Z,87.96
2018-12-06T06:28:21.505Z,87.28
2018-12-06T06:30:50.433Z,89.41
2018-12-06T06:33:19.249Z,87.46
2018-12-06T06:35:48.189Z,88.36
2018-12-06T06:38:17.106Z,85.78
2018-12-06T06:40:46.034Z,89.41
2018-12-06T06:43:14.822Z,86.83
2018-12-06T06:45:43.720Z,87.54
2018-12-06T06:48:12.661Z,87.98
2018-12-06T06:50:41.617Z,85.85
2018-12-06T06:53:10.549Z,86.13
2018-12-06T06:55:39.482Z,87.62
2018-12-06T06:58:08.373Z,85.10
2018-12-06T07:00:37.277Z,85.87
2018-12-06T07:03:06.483Z,88.23
2018-12-06T07:05:35.431Z,85.65
2018-12-06T07:08:04.413Z,87.55
2018-12-06T07:10:33.363Z,89.41
2018-12-06T07:13:02.284Z,86.85
2018-12-06T07:15:31.197Z,87.18
2018-12-06T07:18:00.089Z,88.76
2018-12-06T07:20:28.891Z,86.54
2018-12-06T07:22:57.705Z,85.85
2018-12-06T07:25:26.764Z,85.64
2018-12-06T07:27:55.781Z,84.55
2018-12-06T07:30:24.714Z,87.34
2018-12-06T07:32:53.705Z,87.01
2018-12-06T07:35:22.657Z,85.98
2018-12-06T07:37:51.665Z,86.20
2018-12-06T07:40:20.597Z,87.57
2018-12-06T07:42:49.588Z,86.64
2018-12-06T07:45:18.466Z,88.06
2018-12-06T07:47:47.617Z,87.61
2018-12-06T07:50:16.450Z,87.36
2018-12-06T07:52:45.348Z,86.38
2018-12-06T07:55:14.353Z,85.06
2018-12-06T07:57:43.278Z,85.69
2018-12-06T08:00:12.133Z,85.33
2018-12-06T08:02:41.139Z,83.94
2018-12-06T08:05:10.222Z,84.51
2018-12-06T08:07:39.009Z,86.51
2018-12-06T08:10:08.582Z,85.98
2018-12-06T08:12:37.597Z,86.26
2018-12-06T08:15:07.109Z,87.14
2018-12-06T08:17:36.116Z,85.52
2018-12-06T08:20:06.162Z,85.54
2018-12-06T08:22:35.086Z,83.73
2018-12-06T08:25:04.381Z,84.81
2018-12-06T08:27:34.306Z,83.30
2018-12-06T08:30:03.857Z,83.08
2018-12-06T08:32:32.901Z,83.89
2018-12-06T08:35:01.849Z,82.47
2018-12-06T08:37:30.851Z,82.74
2018-12-06T08:39:59.868Z,83.58
2018-12-06T08:42:28.842Z,85.87
2018-12-06T08:44:57.778Z,84.27
2018-12-06T08:47:26.765Z,85.10
2018-12-06T08:49:55.567Z,83.86
2018-12-06T08:52:24.596Z,82.80
2018-12-06T08:54:53.494Z,83.96
2018-12-06T08:57:22.435Z,83.66
2018-12-06T08:59:51.530Z,81.46
2018-12-06T09:02:20.313Z,81.79
2018-12-06T09:04:49.146Z,83.66
2018-12-06T09:07:18.025Z,84.03
2018-12-06T09:09:46.932Z,83.31
2018-12-06T09:12:15.766Z,81.61
2018-12-06T09:14:44.577Z,83.56
2018-12-06T09:17:13.553Z,83.78
2018-12-06T09:19:42.515Z,82.91
2018-12-06T09:22:11.444Z,82.81
2018-12-06T09:24:40.479Z,83.81
2018-12-06T09:27:09.338Z,83.65
2018-12-06T09:29:38.317Z,83.82
2018-12-06T09:32:07.284Z,82.45
2018-12-06T09:34:36.345Z,82.20
2018-12-06T09:37:05.234Z,87.66
2018-12-06T09:39:34.458Z,81.11
2018-12-06T09:42:03.427Z,85.53
2018-12-06T09:44:32.474Z,80.61
2018-12-06T09:47:01.765Z,81.95
2018-12-06T09:49:30.706Z,80.40
2018-12-06T09:51:59.520Z,84.29
2018-12-06T09:54:28.446Z,79.45
2018-12-06T09:56:57.337Z,79.53
2018-12-06T09:59:26.265Z,80.08
2018-12-06T10:01:55.234Z,84.82
2018-12-06T10:04:24.145Z,80.29
2018-12-06T10:06:53.158Z,80.26
2018-12-06T10:09:22.726Z,80.25
2018-12-06T10:11:51.637Z,80.66
2018-12-06T10:14:20.545Z,84.42
2018-12-06T10:16:49.404Z,81.67
2018-12-06T10:19:18.343Z,81.32
2018-12-06T10:21:47.213Z,82.24
2018-12-06T10:24:16.145Z,79.36
2018-12-06T10:26:45.076Z,82.07
2018-12-06T10:29:14.063Z,82.41
2018-12-06T10:31:43.239Z,82.87
2018-12-06T10:34:12.185Z,82.91
2018-12-06T10:36:41.203Z,81.01
2018-12-06T10:39:10.193Z,83.54
2018-12-06T10:41:39.110Z,80.32
2018-12-06T10:44:08.097Z,80.33
2018-12-06T10:46:37.104Z,83.08
2018-12-06T10:49:06.096Z,82.31
2018-12-06T10:51:42.487Z,81.00
2018-12-06T10:54:11.312Z,82.31
2018-12-06T10:56:40.234Z,81.22
2018-12-06T10:59:09.291Z,81.70
2018-12-06T11:01:43.522Z,82.35
2018-12-06T11:04:12.367Z,82.55
2018-12-06T11:06:41.301Z,80.97
2018-12-06T11:09:10.270Z,89.17
2018-12-06T11:11:39.173Z,83.92
2018-12-06T11:14:08.114Z,81.57
2018-12-06T11:16:36.983Z,82.95
2018-12-06T11:19:05.874Z,81.38
2018-12-06T11:21:34.818Z,82.00
2018-12-06T11:24:03.892Z,86.70
2018-12-06T11:26:32.846Z,81.43
2018-12-06T11:29:02.021Z,84.62
2018-12-06T11:31:31.065Z,80.79
2018-12-06T11:33:59.972Z,80.98
2018-12-06T11:36:28.769Z,80.85
2018-12-06T11:38:57.692Z,82.29
2018-12-06T11:41:27.580Z,83.01
2018-12-06T11:43:56.506Z,81.21
2018-12-06T11:46:25.442Z,80.95
2018-12-06T11:48:54.509Z,81.29
2018-12-06T11:51:23.555Z,80.99
2018-12-06T11:53:52.535Z,83.24
2018-12-06T11:56:21.459Z,82.70
2018-12-06T11:58:50.483Z,82.30
2018-12-06T12:01:19.315Z,82.05
2018-12-06T12:03:48.403Z,81.89
2018-12-06T12:06:17.296Z,84.26
2018-12-06T12:08:46.192Z,82.20
2018-12-06T12:11:15.104Z,82.33
2018-12-06T12:13:44.014Z,83.90
2018-12-06T12:16:13.030Z,82.91
2018-12-06T12:18:42.037Z,84.29
2018-12-06T12:21:11.283Z,83.06
2018-12-06T12:23:40.184Z,80.40
2018-12-06T12:26:09.303Z,82.46
2018-12-06T12:28:38.537Z,83.12
2018-12-06T12:31:07.757Z,80.80
2018-12-06T12:33:36.813Z,83.62
2018-12-06T12:36:05.706Z,81.53
2018-12-06T12:38:34.631Z,81.70
2018-12-06T12:41:03.738Z,80.66
2018-12-06T12:43:32.676Z,82.59
2018-12-06T12:46:01.674Z,85.35
2018-12-06T12:48:30.696Z,81.14
2018-12-06T12:50:59.617Z,81.94
2018-12-06T12:53:28.618Z,82.52
2018-12-06T12:55:57.666Z,82.60
2018-12-06T12:58:26.670Z,83.12
2018-12-06T13:00:55.697Z,81.72
2018-12-06T13:03:24.518Z,81.12
2018-12-06T13:05:53.615Z,81.67
2018-12-06T13:08:22.654Z,80.41
2018-12-06T13:10:51.552Z,80.95
2018-12-06T13:13:20.888Z,86.47
2018-12-06T13:15:49.802Z,90.60
2018-12-06T13:18:18.729Z,80.80
2018-12-06T13:20:47.809Z,83.70
2018-12-06T13:23:17.284Z,83.02
2018-12-06T13:25:46.202Z,84.08
2018-12-06T13:28:15.000Z,82.67
2018-12-06T13:30:44.345Z,86.07
2018-12-06T13:33:13.439Z,83.90
2018-12-06T13:35:42.537Z,84.99
2018-12-06T13:38:11.737Z,83.19
2018-12-06T13:40:40.954Z,83.59
2018-12-06T13:43:10.223Z,83.31
2018-12-06T13:45:39.339Z,82.59
2018-12-06T13:48:09.082Z,87.74
2018-12-06T13:50:38.131Z,82.56
2018-12-06T13:53:07.425Z,84.95
2018-12-06T13:55:36.572Z,83.02
2018-12-06T13:58:05.459Z,83.33
2018-12-06T14:00:34.440Z,84.40
2018-12-06T14:03:04.402Z,82.58
2018-12-06T14:05:34.130Z,83.44
2018-12-06T14:08:03.415Z,83.85
2018-12-06T14:10:32.734Z,84.25
2018-12-06T14:13:01.769Z,83.08
2018-12-06T14:15:31.215Z,84.92
2018-12-06T14:18:00.973Z,85.45
2018-12-06T14:20:30.738Z,84.25
2018-12-06T14:22:59.773Z,82.31
2018-12-06T14:25:29.208Z,81.54
2018-12-06T14:27:58.611Z,81.18
2018-12-06T14:30:28.241Z,84.71
2018-12-06T14:32:57.788Z,82.77
2018-12-06T14:35:27.325Z,82.18
2018-12-06T14:37:56.325Z,84.44
2018-12-06T14:40:25.282Z,82.92
2018-12-06T14:42:54.504Z,82.52
2018-12-06T14:45:23.470Z,86.02
2018-12-06T14:47:52.386Z,83.67
2018-12-06T14:50:21.500Z,84.97
2018-12-06T14:52:50.910Z,84.01
2018-12-06T14:55:19.836Z,85.27
2018-12-06T14:57:48.955Z,86.06
2018-12-06T15:00:18.679Z,85.75
2018-12-06T15:02:47.919Z,85.20
2018-12-06T15:05:17.446Z,84.36
2018-12-06T15:07:46.974Z,85.07
2018-12-06T15:10:15.890Z,83.42
2018-12-06T15:12:45.078Z,83.46
2018-12-06T15:15:14.342Z,84.47
2018-12-06T15:17:43.525Z,85.68
2018-12-06T15:20:13.246Z,88.66
2018-12-06T15:22:42.653Z,84.55
2018-12-06T15:25:11.905Z,85.76
2018-12-06T15:27:41.886Z,86.63
2018-12-06T15:30:10.954Z,85.87
2018-12-06T15:32:44.893Z,85.89
2018-12-06T15:35:15.762Z,85.86
2018-12-06T15:37:45.062Z,86.28
2018-12-06T15:40:14.661Z,84.54
2018-12-06T15:42:46.745Z,85.75
2018-12-06T15:45:15.690Z,86.38
2018-12-06T15:47:44.743Z,86.39
2018-12-06T15:50:14.094Z,86.46
2018-12-06T15:52:43.514Z,87.16
2018-12-06T15:55:12.913Z,85.72
2018-12-06T15:57:42.601Z,85.93
2018-12-06T16:00:12.742Z,86.83
2018-12-06T16:02:41.834Z,85.24
2018-12-06T16:05:11.682Z,85.52
2018-12-06T16:07:40.656Z,84.72
2018-12-06T16:10:10.413Z,85.12
2018-12-06T16:12:39.558Z,85.94
2018-12-06T16:15:08.782Z,85.84
2018-12-06T16:17:37.951Z,86.20
2018-12-06T16:20:08.921Z,85.76
2018-12-06T16:22:38.174Z,86.57
2018-12-06T16:25:07.590Z,85.71
2018-12-06T16:27:36.610Z,85.63
2018-12-06T16:30:07.754Z,87.06
2018-12-06T16:32:37.053Z,84.82
2018-12-06T16:35:07.081Z,85.01
2018-12-06T16:37:36.338Z,84.63
2018-12-06T16:40:06.409Z,85.81
2018-12-06T16:42:36.190Z,85.60
2018-12-06T16:45:06.584Z,87.33
2018-12-06T16:47:36.288Z,85.32
2018-12-06T16:50:07.268Z,85.81
2018-12-06T16:52:36.616Z,85.44
2018-12-06T16:55:06.704Z,85.14
2018-12-06T16:57:35.929Z,88.44
2018-12-06T17:00:08.031Z,86.57
2018-12-06T17:02:36.970Z,85.04
2018-12-06T17:05:06.050Z,87.92
2018-12-06T17:07:34.952Z,86.73
2018-12-06T17:10:04.944Z,85.39
2018-12-06T17:12:34.730Z,87.43
2018-12-06T17:15:04.309Z,86.94
2018-12-06T17:17:33.226Z,88.70
2018-12-06T17:20:02.302Z,87.86
2018-12-06T17:22:31.710Z,88.97
2018-12-06T17:25:00.702Z,87.58
2018-12-06T17:27:29.802Z,86.85
2018-12-06T17:29:59.198Z,88.59
2018-12-06T17:32:28.145Z,86.92
2018-12-06T17:34:57.147Z,87.92
2018-12-06T17:37:26.058Z,89.04
2018-12-06T17:39:55.486Z,89.40
2018-12-06T17:42:24.392Z,92.04
2018-12-06T17:44:53.402Z,87.73
2018-12-06T17:47:22.223Z,87.42
2018-12-06T17:49:51.413Z,88.37
2018-12-06T17:52:20.355Z,86.88
2018-12-06T17:54:49.387Z,87.17
2018-12-06T17:57:18.189Z,87.05
2018-12-06T17:59:47.081Z,86.92
2018-12-06T18:02:16.779Z,86.55
2018-12-06T18:04:46.103Z,89.20
2018-12-06T18:07:14.999Z,89.17
2018-12-06T18:09:44.202Z,88.87
2018-12-06T18:12:13.513Z,88.08
2018-12-06T18:14:42.605Z,89.48
2018-12-06T18:17:11.881Z,90.90
2018-12-06T18:19:40.811Z,89.18
2018-12-06T18:22:09.917Z,91.46
2018-12-06T18:24:38.837Z,92.65
2018-12-06T18:27:08.152Z,90.21
2018-12-06T18:29:40.374Z,90.09
2018-12-06T18:32:09.424Z,92.15
2018-12-06T18:34:38.450Z,91.04
2018-12-06T18:37:07.490Z,91.60
2018-12-06T18:39:36.525Z,93.17
2018-12-06T18:42:05.672Z,91.13
2018-12-06T18:44:34.795Z,92.48
2018-12-06T18:47:03.797Z,90.62
2018-12-06T18:49:32.821Z,91.07
2018-12-06T18:52:01.729Z,91.90
2018-12-06T18:54:30.767Z,93.85
2018-12-06T18:56:59.789Z,91.78
2018-12-06T18:59:29.162Z,90.87
2018-12-06T19:01:58.243Z,91.21
2018-12-06T19:05:32.197Z,91.65
2018-12-06T19:08:01.129Z,91.60
2018-12-06T19:10:30.193Z,92.08
2018-12-06T19:12:59.644Z,90.78
2018-12-06T19:15:29.428Z,90.74
2018-12-06T19:17:59.265Z,92.92
2018-12-06T19:20:29.930Z,92.01
2018-12-06T19:22:59.693Z,92.21
2018-12-06T19:25:29.423Z,93.44
2018-12-06T19:27:59.271Z,92.14
2018-12-06T19:30:28.387Z,92.62
2018-12-06T19:33:03.157Z,93.15
2018-12-06T19:35:29.989Z,94.14
2018-12-06T19:37:59.244Z,94.98
2018-12-06T19:40:28.717Z,92.55
2018-12-06T19:42:57.844Z,92.74
2018-12-06T19:45:26.752Z,93.98
2018-12-06T19:47:55.969Z,92.85
2018-12-06T19:50:25.820Z,93.94
2018-12-06T19:52:55.125Z,95.26
2018-12-06T19:55:24.507Z,93.23
2018-12-06T19:57:54.318Z,93.76
2018-12-06T20:00:23.529Z,95.39
2018-12-06T20:02:52.585Z,94.61
2018-12-06T20:05:21.621Z,93.75
2018-12-06T20:07:50.733Z,93.54
2018-12-06T20:10:19.821Z,94.12
2018-12-06T20:12:50.197Z,95.44
2018-12-06T20:15:19.159Z,95.71
2018-12-06T20:17:48.295Z,96.86
2018-12-06T20:20:23.553Z,97.02
2018-12-06T20:22:48.482Z,94.94
2018-12-06T20:25:17.722Z,95.63
2018-12-06T20:27:46.809Z,94.76
2018-12-06T20:30:15.851Z,95.54
2018-12-06T20:32:44.869Z,94.44
2018-12-06T20:35:13.814Z,94.21
2018-12-06T20:37:42.869Z,94.59
2018-12-06T20:40:12.800Z,93.67
2018-12-06T20:42:42.612Z,93.54
2018-12-06T20:45:11.624Z,93.98
2018-12-06T20:47:40.734Z,93.35
2018-12-06T20:50:09.704Z,92.91
2018-12-06T20:52:38.758Z,93.76
2018-12-06T20:55:07.938Z,91.82
2018-12-06T20:57:37.624Z,94.54
2018-12-06T21:00:07.117Z,92.46
2018-12-06T21:02:36.125Z,93.19
2018-12-06T21:05:05.133Z,92.51
2018-12-06T21:07:36.801Z,92.98
2018-12-06T21:10:05.892Z,93.34
2018-12-06T21:12:34.846Z,93.04
2018-12-06T21:15:04.569Z,92.69
2018-12-06T21:17:33.798Z,92.71
2018-12-06T21:20:02.897Z,92.75
2018-12-06T21:22:32.249Z,93.90
2018-12-06T21:25:01.181Z,92.11
2018-12-06T21:27:30.235Z,92.45
2018-12-06T21:29:59.510Z,92.23
2018-12-06T21:32:28.842Z,92.66
2018-12-06T21:34:57.974Z,92.62
2018-12-06T21:37:27.005Z,92.80
2018-12-06T21:39:56.239Z,93.20
2018-12-06T21:42:25.178Z,92.78
2018-12-06T21:44:54.258Z,92.63
2018-12-06T21:47:25.968Z,93.86
2018-12-06T21:49:55.237Z,93.48
2018-12-06T21:52:24.194Z,93.09
2018-12-06T21:54:53.113Z,92.48
2018-12-06T21:57:22.157Z,91.83
2018-12-06T21:59:51.565Z,92.45
2018-12-06T22:02:24.389Z,94.27
2018-12-06T22:04:53.434Z,92.58
2018-12-06T22:07:22.724Z,92.87
2018-12-06T22:09:51.878Z,92.85
2018-12-06T22:12:21.301Z,92.92
2018-12-06T22:14:50.381Z,93.52
2018-12-06T22:17:19.322Z,93.50
2018-12-06T22:19:48.337Z,92.62
2018-12-06T22:22:17.453Z,94.30
2018-12-06T22:24:46.426Z,94.03
2018-12-06T22:27:15.451Z,93.29
2018-12-06T22:29:44.350Z,92.34
2018-12-06T22:32:13.382Z,92.86
2018-12-06T22:34:42.368Z,92.39
2018-12-06T22:37:11.390Z,92.42
2018-12-06T22:39:40.430Z,92.91
2018-12-06T22:42:09.453Z,93.31
2018-12-06T22:44:38.482Z,93.69
2018-12-06T22:47:07.564Z,93.01
2018-12-06T22:49:36.584Z,91.91
2018-12-06T22:52:05.548Z,92.62
2018-12-06T22:54:34.507Z,93.34
2018-12-06T22:57:03.541Z,93.76
2018-12-06T22:59:32.632Z,94.44
2018-12-06T23:02:01.691Z,93.64
2018-12-06T23:04:30.602Z,93.96
2018-12-06T23:06:59.527Z,94.57
2018-12-06T23:09:28.457Z,95.34
2018-12-06T23:11:57.472Z,96.02
2018-12-06T23:14:26.497Z,96.19
2018-12-06T23:16:55.561Z,96.79
2018-12-06T23:19:24.574Z,96.59
2018-12-06T23:21:53.494Z,96.41
2018-12-06T23:24:22.989Z,97.77
2018-12-06T23:26:51.912Z,97.27
2018-12-06T23:29:20.938Z,97.06
2018-12-06T23:31:49.866Z,97.23
2018-12-06T23:34:18.916Z,96.24
2018-12-06T23:36:47.823Z,96.00
2018-12-06T23:39:16.937Z,96.95
2018-12-06T23:41:45.846Z,97.01
2018-12-06T23:44:14.886Z,97.01
2018-12-06T23:46:43.877Z,97.66
2018-12-06T23:49:12.833Z,97.64
2018-12-06T23:51:41.879Z,98.07
2018-12-06T23:54:10.894Z,98.31
2018-12-06T23:56:39.802Z,98.30
2018-12-06T23:59:08.854Z,97.95
